createdAt,value
2023-01-08T00:00:59.031Z,97393.47
2023-01-08T00:03:25.583Z,97385.44
2023-01-08T00:05:52.177Z,97391.88
2023-01-08T00:08:18.627Z,97374.88
2023-01-08T00:10:45.111Z,97392.31
2023-01-08T00:13:11.609Z,97394.16
2023-01-08T00:15:38.073Z,97386.72
2023-01-08T00:18:06.697Z,97389.69
2023-01-08T00:20:33.712Z,97374.75
2023-01-08T00:23:00.156Z,97377.22
2023-01-08T00:25:26.613Z,97383.06
2023-01-08T00:27:53.090Z,97374.06
2023-01-08T00:30:19.539Z,97380.41
2023-01-08T00:32:46.037Z,97380.50
2023-01-08T00:35:12.475Z,97391.00
2023-01-08T00:37:38.934Z,97386.53
2023-01-08T00:40:06.044Z,97382.59
2023-01-08T00:42:32.505Z,97378.63
2023-01-08T00:44:58.993Z,97381.59
2023-01-08T00:47:25.478Z,97363.78
2023-01-08T00:49:51.919Z,97361.72
2023-01-08T00:52:18.387Z,97353.00
2023-01-08T00:54:44.835Z,97349.03
2023-01-08T00:57:11.301Z,97357.34
2023-01-08T00:59:37.762Z,97354.47
2023-01-08T01:02:04.616Z,97344.88
2023-01-08T01:04:31.207Z,97340.13
2023-01-08T01:06:57.743Z,97336.97
2023-01-08T01:09:24.204Z,97339.44
2023-01-08T01:11:50.656Z,97336.25
2023-01-08T01:14:17.110Z,97325.06
2023-01-08T01:16:43.913Z,97329.91
2023-01-08T01:19:10.595Z,97333.69
2023-01-08T01:21:37.080Z,97330.81
2023-01-08T01:24:05.228Z,97342.84
2023-01-08T01:26:32.360Z,97331.69
2023-01-08T01:28:59.175Z,97338.13
2023-01-08T01:31:27.239Z,97331.22
2023-01-08T01:33:54.245Z,97329.91
2023-01-08T01:36:23.483Z,97335.25
2023-01-08T01:38:50.806Z,97324.09
2023-01-08T01:41:24.524Z,97313.19
2023-01-08T01:43:51.062Z,97313.50
2023-01-08T01:46:35.802Z,97331.38
2023-01-08T01:49:12.559Z,97316.75
2023-01-08T01:51:40.924Z,97321.88
2023-01-08T01:54:08.052Z,97322.44
2023-01-08T01:56:34.566Z,97321.47
2023-01-08T01:59:01.002Z,97327.41
2023-01-08T02:01:28.165Z,97325.50
2023-01-08T02:03:54.708Z,97334.09
2023-01-08T02:06:30.462Z,97333.31
2023-01-08T02:09:16.191Z,97326.38
2023-01-08T02:12:17.911Z,97321.63
2023-01-08T02:15:08.797Z,97323.81
2023-01-08T02:17:46.452Z,97324.38
2023-01-08T02:20:16.812Z,97320.94
2023-01-08T02:23:02.056Z,97328.16
2023-01-08T02:25:53.201Z,97325.78
2023-01-08T02:28:19.679Z,97318.34
2023-01-08T02:30:46.224Z,97313.31
2023-01-08T02:33:13.069Z,97326.94
2023-01-08T02:35:45.234Z,97329.91
2023-01-08T02:38:13.268Z,97329.09
2023-01-08T02:41:00.582Z,97321.69
2023-01-08T02:43:31.571Z,97319.00
2023-01-08T02:45:59.411Z,97323.38
2023-01-08T02:48:41.122Z,97320.97
2023-01-08T02:51:08.592Z,97312.44
2023-01-08T02:53:40.974Z,97311.94
2023-01-08T02:56:09.508Z,97320.53
2023-01-08T02:58:36.025Z,97317.34
2023-01-08T03:01:02.797Z,97316.06
2023-01-08T03:03:29.660Z,97310.75
2023-01-08T03:06:01.800Z,97307.56
2023-01-08T03:08:28.307Z,97302.03
2023-01-08T03:11:03.467Z,97301.22
2023-01-08T03:13:56.142Z,97308.25
2023-01-08T03:16:39.533Z,97305.06
2023-01-08T03:19:09.629Z,97304.56
2023-01-08T03:21:36.090Z,97304.56
2023-01-08T03:24:02.705Z,97297.13
2023-01-08T03:26:29.348Z,97298.50
2023-01-08T03:28:55.895Z,97299.56
2023-01-08T03:31:22.360Z,97291.09
2023-01-08T03:33:49.201Z,97292.97
2023-01-08T03:36:18.024Z,97292.19
2023-01-08T03:39:10.457Z,97282.88
2023-01-08T03:41:37.229Z,97288.50
2023-01-08T03:44:04.381Z,97284.28
2023-01-08T03:46:37.384Z,97281.88
2023-01-08T03:49:04.146Z,97284.84
2023-01-08T03:51:39.760Z,97275.53
2023-01-08T03:54:06.262Z,97267.34
2023-01-08T03:56:32.721Z,97268.41
2023-01-08T03:58:59.172Z,97266.34
2023-01-08T04:01:25.723Z,97256.78
2023-01-08T04:03:52.275Z,97251.22
2023-01-08T04:06:19.019Z,97253.09
2023-01-08T04:08:47.872Z,97258.41
2023-01-08T04:11:14.360Z,97255.53
2023-01-08T04:13:40.816Z,97247.84
2023-01-08T04:16:08.161Z,97248.09
2023-01-08T04:18:34.720Z,97247.63
2023-01-08T04:21:01.199Z,97240.72
2023-01-08T04:23:27.716Z,97238.31
2023-01-08T04:25:54.171Z,97233.59
2023-01-08T04:28:20.861Z,97237.31
2023-01-08T04:30:47.383Z,97228.53
2023-01-08T04:33:13.878Z,97226.94
2023-01-08T04:35:40.340Z,97232.56
2023-01-08T04:38:06.829Z,97234.44
2023-01-08T04:40:33.576Z,97234.97
2023-01-08T04:43:00.140Z,97234.19
2023-01-08T04:45:26.596Z,97234.50
2023-01-08T04:47:59.365Z,97227.06
2023-01-08T04:50:26.444Z,97226.28
2023-01-08T04:52:52.993Z,97215.72
2023-01-08T04:55:19.641Z,97222.31
2023-01-08T04:57:46.128Z,97221.81
2023-01-08T05:00:13.151Z,97217.84
2023-01-08T05:02:39.912Z,97219.41
2023-01-08T05:05:06.883Z,97219.22
2023-01-08T05:07:33.344Z,97217.66
2023-01-08T05:09:59.809Z,97209.13
2023-01-08T05:12:26.287Z,97202.53
2023-01-08T05:14:52.749Z,97205.75
2023-01-08T05:17:19.200Z,97207.34
2023-01-08T05:19:45.677Z,97202.56
2023-01-08T05:22:12.123Z,97199.13
2023-01-08T05:24:38.593Z,97198.63
2023-01-08T05:27:05.307Z,97198.41
2023-01-08T05:29:31.775Z,97193.88
2023-01-08T05:31:58.244Z,97205.59
2023-01-08T05:34:24.717Z,97201.06
2023-01-08T05:36:51.182Z,97191.50
2023-01-08T05:39:17.740Z,97191.81
2023-01-08T05:41:44.193Z,97192.88
2023-01-08T05:44:10.692Z,97193.16
2023-01-08T05:46:37.202Z,97195.03
2023-01-08T05:49:03.672Z,97190.00
2023-01-08T05:51:30.118Z,97197.75
2023-01-08T05:53:57.714Z,97190.56
2023-01-08T05:56:24.193Z,97183.66
2023-01-08T05:58:53.268Z,97193.53
2023-01-08T06:01:19.809Z,97191.13
2023-01-08T06:03:46.328Z,97197.53
2023-01-08T06:06:12.827Z,97192.50
2023-01-08T06:08:39.335Z,97184.22
2023-01-08T06:11:07.148Z,97181.56
2023-01-08T06:13:34.189Z,97180.78
2023-01-08T06:16:01.368Z,97181.88
2023-01-08T06:18:28.787Z,97181.88
2023-01-08T06:20:55.299Z,97178.41
2023-01-08T06:23:21.774Z,97182.13
2023-01-08T06:25:58.278Z,97186.66
2023-01-08T06:28:24.759Z,97180.06
2023-01-08T06:30:51.332Z,97179.53
2023-01-08T06:33:20.931Z,97184.06
2023-01-08T06:35:47.602Z,97188.91
2023-01-08T06:38:14.045Z,97195.00
2023-01-08T06:40:40.502Z,97200.09
2023-01-08T06:43:07.290Z,97192.91
2023-01-08T06:45:34.451Z,97194.00
2023-01-08T06:48:09.684Z,97191.63
2023-01-08T06:50:36.151Z,97191.88
2023-01-08T06:53:02.929Z,97190.31
2023-01-08T06:55:29.407Z,97195.63
2023-01-08T06:57:56.661Z,97196.72
2023-01-08T07:00:23.775Z,97196.22
2023-01-08T07:02:51.027Z,97189.28
2023-01-08T07:05:17.921Z,97191.94
2023-01-08T07:07:44.404Z,97190.59
2023-01-08T07:10:11.210Z,97194.06
2023-01-08T07:12:37.737Z,97189.53
2023-01-08T07:15:04.368Z,97198.28
2023-01-08T07:17:32.470Z,97202.81
2023-01-08T07:19:58.941Z,97194.84
2023-01-08T07:22:26.419Z,97197.78
2023-01-08T07:24:52.906Z,97202.31
2023-01-08T07:27:19.375Z,97195.41
2023-01-08T07:29:45.864Z,97191.16
2023-01-08T07:32:12.356Z,97190.38
2023-01-08T07:34:38.827Z,97192.81
2023-01-08T07:37:05.600Z,97195.75
2023-01-08T07:39:32.577Z,97189.66
2023-01-08T07:41:59.029Z,97187.78
2023-01-08T07:44:25.491Z,97187.00
2023-01-08T07:46:52.014Z,97188.06
2023-01-08T07:49:18.523Z,97181.13
2023-01-08T07:51:44.981Z,97181.41
2023-01-08T07:54:11.653Z,97188.34
2023-01-08T07:56:38.195Z,97183.28
2023-01-08T07:59:04.680Z,97188.59
2023-01-08T08:01:31.200Z,97180.91
2023-01-08T08:03:57.741Z,97188.09
2023-01-08T08:06:24.209Z,97186.22
2023-01-08T08:08:50.656Z,97186.22
2023-01-08T08:11:17.142Z,97185.44
2023-01-08T08:13:45.023Z,97182.25
2023-01-08T08:16:11.990Z,97183.03
2023-01-08T08:18:39.627Z,97172.41
2023-01-08T08:21:06.636Z,97175.06
2023-01-08T08:23:34.628Z,97177.72
2023-01-08T08:26:04.358Z,97174.81
2023-01-08T08:28:30.808Z,97175.59
2023-01-08T08:30:57.306Z,97177.72
2023-01-08T08:33:23.774Z,97176.16
2023-01-08T08:35:51.582Z,97169.25
2023-01-08T08:38:18.040Z,97168.47
2023-01-08T08:40:44.545Z,97157.03
2023-01-08T08:43:11.071Z,97154.38
2023-01-08T08:45:37.586Z,97150.63
2023-01-08T08:48:07.610Z,97150.63
2023-01-08T08:50:34.425Z,97153.00
2023-01-08T08:53:01.905Z,97152.63
2023-01-08T08:55:28.744Z,97143.44
2023-01-08T08:57:55.245Z,97135.75
2023-01-08T09:00:21.724Z,97148.69
2023-01-08T09:02:49.942Z,97147.34
2023-01-08T09:05:16.575Z,97139.28
2023-01-08T09:07:43.043Z,97143.22
2023-01-08T09:10:09.575Z,97138.69
2023-01-08T09:12:36.025Z,97138.13
2023-01-08T09:15:02.496Z,97144.75
2023-01-08T09:17:28.982Z,97154.31
2023-01-08T09:19:55.459Z,97150.28
2023-01-08T09:22:21.939Z,97150.50
2023-01-08T09:24:48.420Z,97153.16
2023-01-08T09:27:14.932Z,97152.00
2023-01-08T09:29:41.420Z,97158.63
2023-01-08T09:32:08.181Z,97160.13
2023-01-08T09:34:36.241Z,97160.81
2023-01-08T09:37:03.296Z,97158.72
2023-01-08T09:39:29.767Z,97163.81
2023-01-08T09:41:56.277Z,97164.03
2023-01-08T09:44:24.347Z,97153.38
2023-01-08T09:46:51.050Z,97154.66
2023-01-08T09:49:21.626Z,97143.22
2023-01-08T09:51:48.120Z,97150.41
2023-01-08T09:54:15.474Z,97147.75
2023-01-08T09:56:42.349Z,97152.59
2023-01-08T09:59:11.973Z,97154.47
2023-01-08T10:01:39.261Z,97154.75
2023-01-08T10:04:18.892Z,97154.47
2023-01-08T10:07:00.283Z,97153.38
2023-01-08T10:09:28.340Z,97151.28
2023-01-08T10:11:56.400Z,97153.75
2023-01-08T10:14:24.957Z,97147.88
2023-01-08T10:16:57.271Z,97122.03
2023-01-08T10:19:23.806Z,97107.47
2023-01-08T10:21:50.264Z,97134.88
2023-01-08T10:24:16.774Z,97123.13
2023-01-08T10:26:43.260Z,97130.78
2023-01-08T10:29:17.668Z,97132.28
2023-01-08T10:31:54.884Z,97134.09
2023-01-08T10:34:46.567Z,97137.16
2023-01-08T10:37:29.968Z,97117.91
2023-01-08T10:40:01.792Z,97120.19
2023-01-08T10:42:28.279Z,97121.28
2023-01-08T10:45:06.143Z,97121.50
2023-01-08T10:47:34.296Z,97115.94
2023-01-08T10:50:00.776Z,97109.94
2023-01-08T10:52:32.606Z,97115.03
2023-01-08T10:55:37.354Z,97112.91
2023-01-08T10:58:13.252Z,97120.81
2023-01-08T11:00:39.844Z,97111.09
2023-01-08T11:03:07.539Z,97105.28
2023-01-08T11:05:40.171Z,97093.84
2023-01-08T11:08:26.882Z,97094.94
2023-01-08T11:11:00.297Z,97095.94
2023-01-08T11:13:26.860Z,97092.41
2023-01-08T11:16:07.359Z,97081.13
2023-01-08T11:18:46.815Z,97083.78
2023-01-08T11:21:24.190Z,97077.97
2023-01-08T11:24:12.345Z,97083.00
2023-01-08T11:26:40.354Z,97087.34
2023-01-08T11:29:19.044Z,97085.88
2023-01-08T11:31:57.495Z,97076.69
2023-01-08T11:34:49.005Z,97070.47
2023-01-08T11:37:36.831Z,97069.09
2023-01-08T11:40:03.332Z,97072.84
2023-01-08T11:42:43.193Z,97071.78
2023-01-08T11:45:17.386Z,97069.22
2023-01-08T11:47:51.903Z,97067.44
2023-01-08T11:50:51.880Z,97057.34
2023-01-08T11:53:39.652Z,97052.81
2023-01-08T11:56:07.837Z,97039.28
2023-01-08T11:59:02.153Z,97038.50
2023-01-08T12:02:07.077Z,97025.25
2023-01-08T12:04:53.762Z,97030.59
2023-01-08T12:07:49.849Z,97034.06
2023-01-08T12:10:51.733Z,97032.38
2023-01-08T12:13:37.009Z,97028.13
2023-01-08T12:16:25.362Z,97020.63
2023-01-08T12:19:20.427Z,97011.25
2023-01-08T12:22:21.096Z,97018.75
2023-01-08T12:24:56.208Z,97015.13
2023-01-08T12:27:56.841Z,96997.84
2023-01-08T12:30:42.645Z,96999.91
2023-01-08T12:33:16.544Z,96986.06
2023-01-08T12:35:44.975Z,96981.72
2023-01-08T12:38:17.243Z,96980.25
2023-01-08T12:40:45.946Z,96974.81
2023-01-08T12:43:23.000Z,96971.25
2023-01-08T12:45:51.766Z,96971.13
2023-01-08T12:48:28.352Z,96983.41
2023-01-08T12:51:03.937Z,96971.84
2023-01-08T12:53:58.514Z,96962.47
2023-01-08T12:56:33.443Z,96966.97
2023-01-08T12:59:18.323Z,96971.53
2023-01-08T13:02:08.613Z,96961.84
2023-01-08T13:04:45.721Z,96951.69
2023-01-08T13:07:21.843Z,96959.25
2023-01-08T13:10:01.818Z,96960.34
2023-01-08T13:12:39.227Z,96946.81
2023-01-08T13:15:06.746Z,96948.72
2023-01-08T13:17:33.250Z,96948.50
2023-01-08T13:20:04.626Z,96940.31
2023-01-08T13:22:32.556Z,96935.88
2023-01-08T13:25:15.207Z,96937.25
2023-01-08T13:27:41.693Z,96924.25
2023-01-08T13:30:39.146Z,96922.16
2023-01-08T13:33:44.071Z,96919.81
2023-01-08T13:36:13.374Z,96913.19
2023-01-08T13:38:40.536Z,96916.44
2023-01-08T13:41:28.067Z,96913.31
2023-01-08T13:44:05.219Z,96907.00
2023-01-08T13:46:37.910Z,96910.75
2023-01-08T13:49:05.474Z,96899.09
2023-01-08T13:51:35.053Z,96897.53
2023-01-08T13:54:14.001Z,96898.13
2023-01-08T13:56:41.280Z,96891.03
2023-01-08T13:59:17.344Z,96894.78
2023-01-08T14:01:55.328Z,96894.59
2023-01-08T14:04:25.037Z,96881.56
2023-01-08T14:06:51.523Z,96885.59
2023-01-08T14:09:23.067Z,96890.47
2023-01-08T14:11:51.336Z,96881.88
2023-01-08T14:14:19.205Z,96883.34
2023-01-08T14:16:46.975Z,96886.69
2023-01-08T14:19:17.098Z,96883.91
2023-01-08T14:21:49.691Z,96883.59
2023-01-08T14:24:16.549Z,96878.56
2023-01-08T14:26:43.007Z,96879.34
2023-01-08T14:29:15.058Z,96878.88
2023-01-08T14:32:12.273Z,96873.34
2023-01-08T14:34:38.938Z,96876.59
2023-01-08T14:37:05.676Z,96876.13
2023-01-08T14:39:35.518Z,96878.31
2023-01-08T14:42:25.156Z,96877.03
2023-01-08T14:44:55.991Z,96886.13
2023-01-08T14:47:22.475Z,96881.25
2023-01-08T14:49:49.997Z,96871.09
2023-01-08T14:52:18.390Z,96874.72
2023-01-08T14:54:45.137Z,96867.81
2023-01-08T14:57:11.597Z,96866.25
2023-01-08T14:59:38.059Z,96855.91
2023-01-08T15:02:05.205Z,96858.38
2023-01-08T15:04:32.009Z,96856.50
2023-01-08T15:07:06.915Z,96858.84
2023-01-08T15:09:34.267Z,96860.94
2023-01-08T15:12:04.811Z,96849.38
2023-01-08T15:14:31.343Z,96853.91
2023-01-08T15:16:59.410Z,96853.72
2023-01-08T15:19:26.783Z,96851.84
2023-01-08T15:21:54.692Z,96848.69
2023-01-08T15:24:34.292Z,96856.19
2023-01-08T15:27:09.522Z,96851.16
2023-01-08T15:29:39.003Z,96845.34
2023-01-08T15:32:14.518Z,96846.41
2023-01-08T15:34:44.770Z,96839.31
2023-01-08T15:37:11.614Z,96834.00
2023-01-08T15:39:38.075Z,96828.50
2023-01-08T15:42:38.935Z,96826.13
2023-01-08T15:45:06.626Z,96826.91
2023-01-08T15:47:33.133Z,96820.69
2023-01-08T15:49:59.828Z,96817.31
2023-01-08T15:52:29.733Z,96813.94
2023-01-08T15:55:00.052Z,96816.28
2023-01-08T15:57:27.066Z,96810.97
2023-01-08T15:59:53.587Z,96819.72
2023-01-08T16:02:22.406Z,96814.03
2023-01-08T16:04:55.713Z,96814.53
2023-01-08T16:07:22.297Z,96814.84
2023-01-08T16:09:48.785Z,96822.34
2023-01-08T16:12:15.245Z,96823.91
2023-01-08T16:14:41.723Z,96814.34
2023-01-08T16:17:08.387Z,96815.81
2023-01-08T16:19:34.962Z,96815.16
2023-01-08T16:22:01.419Z,96812.28
2023-01-08T16:24:27.933Z,96805.06
2023-01-08T16:26:54.390Z,96815.72
2023-01-08T16:29:20.902Z,96813.06
2023-01-08T16:31:47.585Z,96802.59
2023-01-08T16:34:14.650Z,96814.72
2023-01-08T16:36:41.113Z,96821.34
2023-01-08T16:39:07.586Z,96826.94
2023-01-08T16:41:34.129Z,96825.81
2023-01-08T16:44:00.638Z,96832.22
2023-01-08T16:46:27.183Z,96833.81
2023-01-08T16:48:53.662Z,96826.91
2023-01-08T16:51:21.254Z,96831.13
2023-01-08T16:53:47.805Z,96828.34
2023-01-08T16:56:14.257Z,96824.41
2023-01-08T16:58:40.725Z,96826.63
2023-01-08T17:01:10.779Z,96823.69
2023-01-08T17:03:37.468Z,96825.03
2023-01-08T17:06:07.839Z,96819.00
2023-01-08T17:08:39.661Z,96820.22
2023-01-08T17:11:08.108Z,96822.28
2023-01-08T17:13:34.576Z,96825.44
2023-01-08T17:16:03.892Z,96815.69
2023-01-08T17:18:30.393Z,96813.19
2023-01-08T17:20:56.855Z,96814.09
2023-01-08T17:23:28.685Z,96809.56
2023-01-08T17:25:55.678Z,96817.13
2023-01-08T17:28:25.103Z,96810.06
2023-01-08T17:30:52.620Z,96814.09
2023-01-08T17:33:19.093Z,96809.09
2023-01-08T17:40:38.137Z,96805.13
2023-01-08T17:43:04.631Z,96814.56
2023-01-08T17:45:31.144Z,96803.88
2023-01-08T17:47:57.622Z,96799.47
2023-01-08T17:50:24.072Z,96798.66
2023-01-08T17:52:50.568Z,96801.16
2023-01-08T17:55:17.027Z,96791.88
2023-01-08T17:57:43.547Z,96794.88
2023-01-08T18:00:10.605Z,96787.34
2023-01-08T18:02:37.373Z,96781.41
2023-01-08T18:05:03.995Z,96790.56
2023-01-08T18:07:33.495Z,96782.31
2023-01-08T18:10:00.144Z,96775.41
2023-01-08T18:12:26.889Z,96777.22
2023-01-08T18:14:53.344Z,96773.56
2023-01-08T18:17:19.879Z,96775.00
2023-01-08T18:19:46.356Z,96768.44
2023-01-08T18:22:12.812Z,96773.56
2023-01-08T18:24:39.278Z,96770.97
2023-01-08T18:27:05.943Z,96774.06
2023-01-08T18:29:32.400Z,96773.25
2023-01-08T18:31:58.985Z,96768.88
2023-01-08T18:34:26.009Z,96764.00
2023-01-08T18:36:52.477Z,96762.88
2023-01-08T18:39:18.985Z,96755.97
2023-01-08T18:42:03.707Z,96762.78
2023-01-08T18:44:30.182Z,96770.63
2023-01-08T18:47:03.856Z,96766.75
2023-01-08T18:49:30.311Z,96765.78
2023-01-08T18:51:56.796Z,96765.00
2023-01-08T18:54:23.267Z,96764.53
2023-01-08T18:56:51.076Z,96760.59
2023-01-08T18:59:17.711Z,96764.06
2023-01-08T19:01:44.299Z,96757.44
2023-01-08T19:04:15.795Z,96755.09
2023-01-08T19:06:42.258Z,96750.03
2023-01-08T19:09:08.765Z,96747.19
2023-01-08T19:11:35.227Z,96748.59
2023-01-08T19:14:01.740Z,96748.13
2023-01-08T19:16:28.559Z,96750.94
2023-01-08T19:18:55.756Z,96741.66
2023-01-08T19:21:22.549Z,96739.75
2023-01-08T19:23:49.105Z,96735.53
2023-01-08T19:26:15.803Z,96740.53
2023-01-08T19:28:42.510Z,96732.69
2023-01-08T19:31:10.405Z,96734.78
2023-01-08T19:33:36.878Z,96720.38
2023-01-08T19:36:08.538Z,96718.97
2023-01-08T19:38:35.025Z,96726.78
2023-01-08T19:41:01.487Z,96724.13
2023-01-08T19:43:42.868Z,96709.81
2023-01-08T19:46:10.281Z,96709.50
2023-01-08T19:48:37.497Z,96705.72
2023-01-08T19:51:10.593Z,96698.03
2023-01-08T19:53:37.147Z,96693.78
2023-01-08T19:56:11.105Z,96685.94
2023-01-08T19:58:37.586Z,96691.25
2023-01-08T20:01:17.688Z,96686.53
2023-01-08T20:03:44.525Z,96688.75
2023-01-08T20:06:12.757Z,96685.28
2023-01-08T20:08:39.227Z,96682.91
2023-01-08T20:11:07.200Z,96685.91
2023-01-08T20:13:36.012Z,96684.34
2023-01-08T20:16:06.341Z,96673.47
2023-01-08T20:18:33.169Z,96683.06
2023-01-08T20:21:23.954Z,96677.25
2023-01-08T20:24:02.696Z,96678.19
2023-01-08T20:26:29.375Z,96668.13
2023-01-08T20:28:56.357Z,96661.53
2023-01-08T20:31:23.483Z,96654.59
2023-01-08T20:33:50.145Z,96656.81
2023-01-08T20:36:18.963Z,96646.75
2023-01-08T20:38:45.483Z,96643.63
2023-01-08T20:41:12.221Z,96653.81
2023-01-08T20:43:39.429Z,96646.88
2023-01-08T20:46:06.550Z,96639.19
2023-01-08T20:48:37.078Z,96638.41
2023-01-08T20:51:09.601Z,96645.94
2023-01-08T20:53:36.369Z,96652.84
2023-01-08T20:56:05.755Z,96653.94
2023-01-08T20:58:33.224Z,96648.13
2023-01-08T21:01:06.959Z,96646.56
2023-01-08T21:03:35.786Z,96646.22
2023-01-08T21:06:08.444Z,96640.44
2023-01-08T21:08:35.007Z,96635.56
2023-01-08T21:11:02.431Z,96631.34
2023-01-08T21:13:28.965Z,96626.34
2023-01-08T21:16:01.592Z,96620.19
2023-01-08T21:18:28.127Z,96625.06
2023-01-08T21:21:04.410Z,96618.47
2023-01-08T21:23:31.167Z,96617.38
2023-01-08T21:26:05.559Z,96614.53
2023-01-08T21:28:32.081Z,96608.72
2023-01-08T21:31:22.364Z,96598.84
2023-01-08T21:33:49.110Z,96594.22
2023-01-08T21:36:19.839Z,96601.09
2023-01-08T21:38:46.402Z,96594.66
2023-01-08T21:41:36.255Z,96589.47
2023-01-08T21:44:22.330Z,96587.59
2023-01-08T21:46:48.795Z,96584.00
2023-01-08T21:49:15.271Z,96578.03
2023-01-08T21:52:00.961Z,96574.41
2023-01-08T21:54:27.433Z,96568.59
2023-01-08T21:56:53.919Z,96560.44
2023-01-08T21:59:20.428Z,96556.19
2023-01-08T22:01:46.928Z,96555.59
2023-01-08T22:04:13.458Z,96538.81
2023-01-08T22:06:39.945Z,96550.41
2023-01-08T22:09:06.415Z,96541.28
2023-01-08T22:11:33.158Z,96533.09
2023-01-08T22:14:00.340Z,96530.75
2023-01-08T22:16:26.881Z,96528.53
2023-01-08T22:18:53.441Z,96532.47
2023-01-08T22:21:19.945Z,96526.66
2023-01-08T22:23:46.390Z,96520.53
2023-01-08T22:26:15.258Z,96526.81
2023-01-08T22:28:41.726Z,96507.66
2023-01-08T22:31:12.566Z,96502.47
2023-01-08T22:33:39.579Z,96505.13
2023-01-08T22:36:07.687Z,96500.59
2023-01-08T22:38:34.198Z,96491.81
2023-01-08T22:41:00.680Z,96494.31
2023-01-08T22:43:27.167Z,96494.47
2023-01-08T22:45:54.309Z,96497.47
2023-01-08T22:48:20.790Z,96493.22
2023-01-08T22:50:47.291Z,96489.75
2023-01-08T22:53:13.761Z,96485.06
2023-01-08T22:55:46.170Z,96478.16
2023-01-08T22:58:14.968Z,96487.72
2023-01-08T23:00:41.513Z,96481.13
2023-01-08T23:03:08.024Z,96477.69
2023-01-08T23:05:34.633Z,96474.22
2023-01-08T23:08:01.426Z,96467.34
2023-01-08T23:10:28.007Z,96449.78
2023-01-08T23:12:54.470Z,96452.44
2023-01-08T23:15:21.361Z,96449.78
2023-01-08T23:17:52.557Z,96445.88
2023-01-08T23:20:19.655Z,96439.22
2023-01-08T23:22:46.827Z,96440.84
2023-01-08T23:25:13.304Z,96431.25
2023-01-08T23:27:39.781Z,96435.31
2023-01-08T23:30:06.505Z,96432.16
2023-01-08T23:32:34.552Z,96431.25
2023-01-08T23:35:01.068Z,96423.25
2023-01-08T23:37:27.532Z,96424.94
2023-01-08T23:39:53.994Z,96428.22
2023-01-08T23:42:20.467Z,96429.44
2023-01-08T23:44:48.955Z,96434.28
2023-01-08T23:47:15.459Z,96432.25
2023-01-08T23:49:41.910Z,96439.91
2023-01-08T23:52:08.403Z,96424.13
2023-01-08T23:54:35.866Z,96421.47
2023-01-08T23:57:02.415Z,96424.72
2023-01-08T23:59:28.892Z,96414.38
